Time;durP1;ratioP1;P1;durP2;ratioP2;P2;SDS_P1;SDS_P2;PMS_P1;PMS_P2;Temp;Humidity;BMP_temperature;BMP_pressure;BME280_temperature;BME280_humidity;BME280_pressure;Samples;Min_cycle;Max_cycle;Signal;HPM_P1;HPM_P2
2023/07/19 00:00:20;;;;;;;6.27;3.93;;;;;;;22.67;66.91;99952.06;5071714;28;20725;-61
2023/07/19 00:02:50;;;;;;;7.57;3.30;;;;;;;22.70;65.97;99954.50;5061987;28;20123;-62
2023/07/19 00:05:21;;;;;;;5.70;3.70;;;;;;;22.78;66.04;99956.59;5071096;28;20043;-56
2023/07/19 00:07:51;;;;;;;7.27;4.07;;;;;;;22.82;64.09;99953.59;5060155;28;20101;-59
2023/07/19 00:10:22;;;;;;;12.27;3.93;;;;;;;22.96;63.69;99954.41;5070467;28;20493;-61
2023/07/19 00:12:53;;;;;;;6.97;3.77;;;;;;;23.11;62.46;99947.97;5061557;28;20043;-61
2023/07/19 00:15:27;;;;;;;7.23;4.30;;;;;;;23.11;63.55;99947.97;5069687;28;20470;-60
2023/07/19 00:17:58;;;;;;;9.93;4.30;;;;;;;23.24;64.00;99943.47;5061402;28;20938;-57
2023/07/19 00:20:29;;;;;;;8.73;4.30;;;;;;;23.25;62.99;99938.97;5070810;28;20052;-60
2023/07/19 00:22:59;;;;;;;8.90;4.03;;;;;;;23.24;63.85;99934.63;5060261;28;20045;-59
2023/07/19 00:25:30;;;;;;;8.43;4.20;;;;;;;23.14;63.57;99925.59;5070585;28;20059;-58
2023/07/19 00:28:00;;;;;;;6.23;4.77;;;;;;;23.04;63.67;99936.09;5060006;28;20110;-59
2023/07/19 00:30:33;;;;;;;7.00;4.73;;;;;;;23.19;64.81;99934.97;5069769;28;20367;-61
2023/07/19 00:33:03;;;;;;;8.17;4.47;;;;;;;23.37;64.46;99931.91;5059203;28;20035;-59
2023/07/19 00:35:40;;;;;;;13.87;4.33;;;;;;;23.51;63.73;99934.34;5070759;28;20048;-59
2023/07/19 00:38:11;;;;;;;9.80;4.80;;;;;;;23.78;63.81;99919.91;5059713;28;20291;-58
2023/07/19 00:40:41;;;;;;;8.60;5.10;;;;;;;23.73;62.00;99936.28;5062889;28;21174;-60
2023/07/19 00:43:12;;;;;;;9.10;4.33;;;;;;;23.63;62.75;99941.41;5069410;28;20043;-58
2023/07/19 00:45:48;;;;;;;6.50;4.80;;;;;;;23.62;63.41;99931.72;5060781;28;20048;-58
2023/07/19 00:48:19;;;;;;;7.13;4.47;;;;;;;23.62;63.61;99939.72;5069719;28;20040;-61
2023/07/19 00:50:51;;;;;;;7.87;4.60;;;;;;;23.73;62.10;99938.09;5060111;28;20067;-59
2023/07/19 00:53:24;;;;;;;8.33;4.67;;;;;;;23.80;61.27;99936.66;5070434;28;20162;-58
2023/07/19 00:55:55;;;;;;;7.70;4.20;;;;;;;23.92;62.84;99927.72;5060205;28;20166;-60
2023/07/19 00:58:26;;;;;;;8.40;4.90;;;;;;;23.93;62.88;99928.56;5070790;28;20155;-59
2023/07/19 01:00:59;;;;;;;8.73;4.47;;;;;;;24.04;62.56;99920.59;5059404;28;20048;-59
2023/07/19 01:03:29;;;;;;;8.87;4.60;;;;;;;24.05;62.87;99928.44;5068971;28;20040;-59
2023/07/19 01:06:03;;;;;;;8.30;5.03;;;;;;;24.08;61.33;99933.53;5059671;28;20099;-58
2023/07/19 01:08:34;;;;;;;11.17;6.10;;;;;;;24.16;61.86;99924.09;5069110;28;20056;-59
2023/07/19 01:11:04;;;;;;;8.77;5.30;;;;;;;24.26;60.64;99925.06;5059047;28;20070;-57
2023/07/19 01:13:35;;;;;;;16.57;6.80;;;;;;;24.24;58.92;99927.03;5071014;28;20067;-60
2023/07/19 01:16:07;;;;;;;10.33;6.00;;;;;;;24.39;60.97;99925.81;5059798;28;20075;-59
2023/07/19 01:18:38;;;;;;;11.57;6.00;;;;;;;24.59;60.35;99915.38;5070571;28;20104;-60
2023/07/19 01:21:08;;;;;;;10.17;5.90;;;;;;;24.62;58.44;99915.13;5060319;28;20126;-60
2023/07/19 01:23:53;;;;;;;13.07;6.33;;;;;;;24.58;59.01;99913.69;5058376;28;20060;-56
2023/07/19 01:26:23;;;;;;;13.70;6.03;;;;;;;24.60;60.22;99911.75;5070408;28;20130;-60
2023/07/19 01:28:57;;;;;;;9.77;5.47;;;;;;;24.71;60.32;99917.03;5059840;28;20071;-58
2023/07/19 01:31:27;;;;;;;8.37;6.10;;;;;;;24.87;60.51;99920.19;5069601;28;20054;-58
2023/07/19 01:33:58;;;;;;;12.00;7.20;;;;;;;24.97;59.23;99915.78;5060690;28;20071;-60
2023/07/19 01:36:28;;;;;;;10.70;6.53;;;;;;;25.18;58.71;99907.00;5070502;28;20316;-60
2023/07/19 01:39:01;;;;;;;11.97;6.70;;;;;;;25.18;59.36;99909.66;5059471;28;20075;-57
2023/07/19 01:41:31;;;;;;;10.23;6.30;;;;;;;25.39;60.62;99905.22;5071580;28;20528;-59
2023/07/19 01:44:02;;;;;;;9.23;6.80;;;;;;;25.70;60.82;99902.59;5058381;28;20055;-59
2023/07/19 01:46:35;;;;;;;10.00;6.37;;;;;;;25.83;59.80;99900.59;5070372;28;20051;-60
2023/07/19 01:49:06;;;;;;;15.43;7.07;;;;;;;25.80;58.45;99898.16;5058347;28;20067;-59
2023/07/19 01:51:36;;;;;;;9.67;6.80;;;;;;;25.58;58.21;99903.66;5069687;28;20377;-58
2023/07/19 01:54:08;;;;;;;12.60;6.70;;;;;;;25.78;60.50;99905.47;5059521;28;20052;-59
2023/07/19 01:56:39;;;;;;;15.30;7.00;;;;;;;26.13;60.99;99893.56;5070779;28;20064;-59
2023/07/19 01:59:09;;;;;;;12.60;7.40;;;;;;;26.27;59.23;99902.25;5062147;28;20052;-60
2023/07/19 02:01:40;;;;;;;10.57;7.53;;;;;;;26.41;59.18;99891.13;5070862;28;20054;-59
2023/07/19 02:04:10;;;;;;;18.23;8.33;;;;;;;26.35;56.80;99891.69;5074004;28;20070;-60
2023/07/19 02:06:41;;;;;;;12.30;8.00;;;;;;;26.16;56.16;99895.13;5065913;28;20056;-60
2023/07/19 02:09:13;;;;;;;11.23;7.83;;;;;;;26.19;56.40;99893.03;5073100;28;20044;-60
2023/07/19 02:11:44;;;;;;;12.47;8.57;;;;;;;26.29;57.21;99893.09;5045418;28;20052;-59
2023/07/19 02:14:15;;;;;;;12.63;8.03;;;;;;;26.40;58.45;99895.66;5074494;28;20060;-60
2023/07/19 02:16:45;;;;;;;11.90;8.40;;;;;;;26.60;57.14;99880.50;5061316;28;20048;-60
2023/07/19 02:19:16;;;;;;;13.40;8.13;;;;;;;26.72;56.57;99885.78;5073756;28;20089;-58
2023/07/19 02:21:46;;;;;;;13.13;8.73;;;;;;;26.79;54.98;99884.22;5061834;28;20056;-57
2023/07/19 02:24:20;;;;;;;15.87;9.73;;;;;;;26.38;55.60;99876.19;5072000;28;20546;-58
2023/07/19 02:26:51;;;;;;;13.07;8.10;;;;;;;26.19;56.38;99874.31;5063417;28;20051;-60
2023/07/19 02:29:21;;;;;;;12.47;8.40;;;;;;;26.10;56.55;99872.41;5071756;28;20078;-60
2023/07/19 02:31:53;;;;;;;14.87;9.23;;;;;;;26.09;56.50;99876.09;5062229;28;20162;-60
2023/07/19 02:34:24;;;;;;;11.63;8.87;;;;;;;26.03;54.62;99876.59;5072640;28;20055;-59
2023/07/19 02:36:56;;;;;;;13.63;9.43;;;;;;;25.94;55.39;99856.03;5061661;28;20050;-61
2023/07/19 02:39:29;;;;;;;16.30;9.73;;;;;;;26.10;55.05;99856.34;5072431;28;20136;-59
2023/07/19 02:42:00;;;;;;;20.97;11.33;;;;;;;26.30;54.85;99857.28;5060493;28;20401;-59
2023/07/19 02:44:30;;;;;;;16.43;9.60;;;;;;;26.48;54.08;99857.47;5071324;28;20093;-59
2023/07/19 02:47:01;;;;;;;12.43;9.37;;;;;;;26.48;53.82;99860.13;5061921;28;20058;-59
2023/07/19 02:49:31;;;;;;;17.07;10.20;;;;;;;26.50;54.47;99847.47;5070570;28;20459;-60
2023/07/19 02:52:02;;;;;;;15.80;10.00;;;;;;;26.40;53.42;99851.94;5063505;28;20625;-64
2023/07/19 02:54:35;;;;;;;20.97;9.83;;;;;;;26.28;54.96;99842.31;5071945;28;20389;-60
2023/07/19 02:57:06;;;;;;;16.90;10.20;;;;;;;26.28;54.62;99847.69;5060764;28;20043;-58
2023/07/19 02:59:36;;;;;;;18.07;10.20;;;;;;;26.35;56.72;99843.47;5071684;28;20071;-60
2023/07/19 03:02:07;;;;;;;13.77;9.53;;;;;;;26.57;56.10;99843.28;5061477;28;20066;-61
2023/07/19 03:04:38;;;;;;;14.23;9.43;;;;;;;26.87;58.23;99839.66;5073387;28;20048;-58
2023/07/19 03:07:08;;;;;;;18.27;10.30;;;;;;;26.98;55.21;99846.69;5062021;28;20056;-60
2023/07/19 03:09:40;;;;;;;17.30;10.63;;;;;;;27.00;54.92;99846.56;5071155;28;21241;-60
2023/07/19 03:12:11;;;;;;;17.27;10.37;;;;;;;26.96;55.37;99837.09;5060851;28;20223;-57
2023/07/19 03:14:41;;;;;;;15.80;10.73;;;;;;;26.89;54.98;99836.84;5062376;28;20050;-59
2023/07/19 03:17:12;;;;;;;20.90;10.83;;;;;;;26.78;54.08;99834.28;5070719;28;20074;-59
2023/07/19 03:19:43;;;;;;;15.23;11.20;;;;;;;26.65;54.30;99832.72;5059869;28;20098;-56
2023/07/19 03:22:13;;;;;;;23.20;10.67;;;;;;;26.64;53.57;99828.34;5070638;28;20056;-60
2023/07/19 03:24:45;;;;;;;13.90;10.37;;;;;;;26.62;53.76;99830.31;5068672;28;20062;-60
2023/07/19 03:27:16;;;;;;;18.07;11.50;;;;;;;26.70;53.86;99823.41;5114463;28;20374;-60
2023/07/19 03:29:46;;;;;;;19.43;11.80;;;;;;;26.93;52.72;99824.81;5093009;28;20454;-59
2023/07/19 03:32:17;;;;;;;17.60;11.13;;;;;;;26.99;52.74;99829.63;5077019;28;20041;-61
2023/07/19 03:34:48;;;;;;;19.60;11.57;;;;;;;27.15;53.19;99830.91;5090503;28;20055;-60
2023/07/19 03:37:19;;;;;;;21.87;11.13;;;;;;;27.18;53.56;99825.25;5083721;28;20040;-59
2023/07/19 03:39:51;;;;;;;17.90;11.70;;;;;;;27.08;54.20;99826.13;5064309;28;20127;-60
2023/07/19 03:42:21;;;;;;;18.67;11.00;;;;;;;27.37;55.69;99819.91;5074387;28;20101;-60
2023/07/19 03:44:52;;;;;;;18.40;11.73;;;;;;;27.68;54.10;99827.72;5084515;28;20391;-61
2023/07/19 03:47:22;;;;;;;20.57;9.67;;;;;;;27.74;55.64;99819.94;5094745;28;20109;-60
2023/07/19 03:49:53;;;;;;;23.50;7.80;;;;;;;27.42;58.37;99812.25;5071694;28;20097;-59
2023/07/19 03:52:23;;;;;;;11.83;6.07;;;;;;;27.21;59.71;99822.31;5072058;28;20062;-59
2023/07/19 03:54:56;;;;;;;14.37;6.33;;;;;;;26.97;61.60;99828.94;5061993;28;20051;-59
2023/07/19 03:57:27;;;;;;;16.60;5.97;;;;;;;26.78;61.55;99824.41;5071956;28;20079;-59
2023/07/19 03:59:58;;;;;;;9.37;5.73;;;;;;;26.56;61.67;99825.53;5060733;28;20475;-60
2023/07/19 04:02:29;;;;;;;12.20;6.47;;;;;;;26.17;61.67;99819.19;5072193;28;20052;-61
2023/07/19 04:05:00;;;;;;;11.87;5.77;;;;;;;25.80;62.79;99828.56;5060669;28;20061;-60
2023/07/19 04:07:30;;;;;;;14.80;5.93;;;;;;;25.56;63.82;99817.31;5072551;28;20130;-60
2023/07/19 04:10:02;;;;;;;16.00;5.97;;;;;;;25.14;65.51;99826.19;5061121;28;20061;-60
2023/07/19 04:12:33;;;;;;;11.47;5.60;;;;;;;25.09;66.07;99838.25;5071527;28;20035;-61
2023/07/19 04:15:03;;;;;;;16.13;5.70;;;;;;;25.13;66.28;99827.13;5060158;28;20222;-58
2023/07/19 04:17:34;;;;;;;17.07;5.20;;;;;;;24.86;64.89;99822.31;5072273;28;20044;-60
2023/07/19 04:20:06;;;;;;;9.53;4.90;;;;;;;24.78;66.47;99816.72;5061580;28;20124;-60
2023/07/19 04:22:36;;;;;;;12.60;5.97;;;;;;;24.85;67.39;99820.59;5072064;28;20312;-61
2023/07/19 04:25:10;;;;;;;17.43;6.20;;;;;;;24.84;65.20;99834.94;5061227;28;20089;-60
2023/07/19 04:27:40;;;;;;;21.53;5.67;;;;;;;24.62;65.88;99832.34;5066800;28;20074;-59
2023/07/19 04:30:11;;;;;;;13.17;5.40;;;;;;;24.61;65.70;99841.31;5069192;28;20057;-62
2023/07/19 04:32:42;;;;;;;11.90;5.50;;;;;;;24.41;65.02;99842.88;5060374;28;20058;-60
2023/07/19 04:35:12;;;;;;;7.27;5.23;;;;;;;24.29;66.22;99840.25;5070125;28;21199;-58
2023/07/19 04:37:43;;;;;;;11.23;5.23;;;;;;;23.86;65.45;99840.13;5059188;28;20048;-62
2023/07/19 04:40:16;;;;;;;11.77;5.17;;;;;;;23.51;66.76;99841.00;5070950;28;20343;-60
2023/07/19 04:42:47;;;;;;;11.03;5.03;;;;;;;23.56;67.30;99825.50;5060073;28;20039;-59
2023/07/19 04:45:18;;;;;;;17.60;5.90;;;;;;;23.66;67.10;99837.19;5069458;28;20135;-60
2023/07/19 04:47:48;;;;;;;10.30;5.37;;;;;;;23.52;67.32;99829.41;5060252;28;20458;-61
2023/07/19 04:50:19;;;;;;;14.57;5.23;;;;;;;23.34;65.53;99809.47;5071736;28;20282;-63
2023/07/19 04:52:49;;;;;;;10.80;5.33;;;;;;;23.62;67.44;99835.72;5058693;28;20355;-62
2023/07/19 04:55:22;;;;;;;19.97;5.77;;;;;;;23.82;64.96;99838.69;5071284;28;20055;-60
2023/07/19 04:57:52;;;;;;;17.23;5.47;;;;;;;23.78;66.05;99834.53;5059652;28;20071;-62
2023/07/19 05:00:23;;;;;;;13.40;5.30;;;;;;;23.78;64.61;99840.72;5069639;28;20058;-61
2023/07/19 05:02:53;;;;;;;13.67;5.93;;;;;;;23.65;64.63;99839.97;5060131;28;20699;-60
2023/07/19 05:05:25;;;;;;;12.73;5.33;;;;;;;23.59;65.66;99846.63;5069520;28;20467;-62
2023/07/19 05:07:56;;;;;;;11.60;5.70;;;;;;;23.68;64.77;99840.56;5058931;28;20868;-63
2023/07/19 05:10:28;;;;;;;17.03;5.57;;;;;;;23.75;63.88;99845.47;5070682;28;20076;-60
2023/07/19 05:13:00;;;;;;;15.37;5.53;;;;;;;23.65;64.61;99839.97;5061250;28;20059;-60
2023/07/19 05:15:31;;;;;;;11.33;5.07;;;;;;;23.62;64.69;99834.88;5069141;28;20460;-61
2023/07/19 05:18:01;;;;;;;7.87;5.00;;;;;;;23.55;63.93;99823.81;5059755;28;20046;-63
2023/07/19 05:20:32;;;;;;;10.70;5.00;;;;;;;23.61;65.13;99839.38;5069989;28;20054;-60
2023/07/19 05:23:02;;;;;;;14.53;5.80;;;;;;;;;;5058627;28;20044;-62
2023/07/19 05:25:34;;;;;;;10.17;5.13;;;;;;;23.57;66.41;99837.91;5071641;28;20048;-64
2023/07/19 05:28:06;;;;;;;11.10;5.30;;;;;;;23.57;64.04;99824.56;5059367;28;20044;-60
2023/07/19 05:30:36;;;;;;;13.43;5.30;;;;;;;23.65;65.11;99835.47;5069894;28;20071;-64
2023/07/19 05:33:07;;;;;;;6.40;4.70;;;;;;;23.61;64.33;99839.38;5062209;28;20032;-61
2023/07/19 05:35:38;;;;;;;11.37;5.10;;;;;;;23.51;64.89;99827.69;5073394;28;20040;-60
2023/07/19 05:38:09;;;;;;;12.23;5.27;;;;;;;23.43;67.27;99841.59;5062236;28;20070;-62
2023/07/19 05:40:41;;;;;;;16.50;5.37;;;;;;;23.01;67.22;99805.75;5072716;28;20346;-61
2023/07/19 05:43:11;;;;;;;10.53;4.70;;;;;;;23.04;66.51;99845.50;5063168;28;20054;-62
2023/07/19 05:45:42;;;;;;;9.00;4.63;;;;;;;22.73;66.55;99846.88;5064080;28;20171;-60
2023/07/19 05:48:12;;;;;;;10.50;5.20;;;;;;;22.21;67.07;99830.22;5072108;28;20055;-61
2023/07/19 05:50:43;;;;;;;8.47;4.93;;;;;;;22.22;67.31;99842.56;5063655;28;20044;-61
2023/07/19 05:53:14;;;;;;;12.90;5.17;;;;;;;22.47;68.61;99851.47;5073484;28;20044;-63
2023/07/19 05:55:46;;;;;;;8.83;4.80;;;;;;;22.86;66.88;99854.81;5063457;28;20068;-60
2023/07/19 05:58:16;;;;;;;8.67;5.37;;;;;;;22.88;66.46;99861.72;5072902;28;20101;-62
2023/07/19 06:00:48;;;;;;;10.87;5.20;;;;;;;22.47;66.35;99788.41;5062839;28;20044;-63
2023/07/19 06:03:19;;;;;;;12.10;5.00;;;;;;;22.91;67.26;99855.31;5073291;28;20036;-62
2023/07/19 06:05:50;;;;;;;9.23;5.50;;;;;;;22.79;66.11;99867.75;5062101;28;20463;-62
2023/07/19 06:08:20;;;;;;;10.37;5.27;;;;;;;22.77;67.12;99865.19;5074372;28;20486;-63
2023/07/19 06:10:56;;;;;;;15.77;5.33;;;;;;;22.10;65.15;99743.16;5062807;28;20127;-63
2023/07/19 06:13:26;;;;;;;7.47;4.87;;;;;;;22.91;66.29;99855.31;5072992;28;20078;-60
2023/07/19 06:15:57;;;;;;;9.00;5.07;;;;;;;22.98;65.41;99856.59;5061875;28;20055;-61
2023/07/19 06:18:27;;;;;;;8.33;5.30;;;;;;;22.89;67.01;99870.56;5073011;28;20044;-59
2023/07/19 06:20:58;;;;;;;14.07;4.90;;;;;;;22.81;66.17;99853.38;5061283;28;20135;-60
2023/07/19 06:23:29;;;;;;;7.10;4.60;;;;;;;22.85;65.66;99869.09;5071338;28;20035;-63
2023/07/19 06:26:04;;;;;;;11.30;4.67;;;;;;;22.87;65.82;99867.19;5061055;28;20135;-60
2023/07/19 06:28:35;;;;;;;10.13;4.57;;;;;;;22.93;66.05;99862.25;5072772;28;20450;-59
2023/07/19 06:31:05;;;;;;;7.97;4.60;;;;;;;22.72;66.99;99851.38;5061546;28;20060;-63
2023/07/19 06:33:36;;;;;;;8.60;4.60;;;;;;;22.46;67.66;99855.91;5071874;28;20153;-60
2023/07/19 06:36:07;;;;;;;8.73;4.33;;;;;;;22.18;68.29;99859.69;5061269;28;20058;-59
2023/07/19 06:38:38;;;;;;;8.87;4.63;;;;;;;21.94;70.08;99855.16;5071408;28;20063;-61
2023/07/19 06:41:11;;;;;;;10.90;4.53;;;;;;;21.86;70.96;99859.28;5044038;28;20096;-61
2023/07/19 06:43:42;;;;;;;12.50;4.70;;;;;;;21.82;71.77;99856.00;5062285;28;20067;-63
2023/07/19 06:46:12;;;;;;;12.20;4.80;;;;;;;21.84;71.77;99861.19;5072030;28;20060;-59
2023/07/19 06:48:43;;;;;;;9.03;4.70;;;;;;;21.70;71.83;99856.84;5068473;28;20458;-61
2023/07/19 06:51:13;;;;;;;8.77;4.80;;;;;;;21.62;72.33;99854.72;5071824;28;20084;-64
2023/07/19 06:53:44;;;;;;;8.87;4.57;;;;;;;21.65;73.44;99848.34;5062061;28;20054;-62
2023/07/19 06:56:16;;;;;;;11.50;4.83;;;;;;;21.72;73.10;99845.16;5072787;28;20420;-61
2023/07/19 06:58:46;;;;;;;9.77;4.73;;;;;;;21.56;72.69;99843.66;5061039;28;20147;-62
2023/07/19 07:01:17;;;;;;;9.30;4.77;;;;;;;21.56;73.14;99846.31;5071593;28;20356;-62
2023/07/19 07:03:48;;;;;;;8.63;4.83;;;;;;;21.48;74.12;99842.38;5062677;28;20467;-60
2023/07/19 07:06:19;;;;;;;8.60;4.63;;;;;;;21.68;74.84;99848.97;5072938;28;20369;-64
2023/07/19 07:08:49;;;;;;;13.93;4.50;;;;;;;21.69;73.78;99844.50;5060342;28;20036;-63
2023/07/19 07:11:21;;;;;;;14.77;4.63;;;;;;;21.54;74.11;99849.94;5076852;28;20281;-63
2023/07/19 07:13:52;;;;;;;15.80;4.63;;;;;;;21.53;74.59;99842.91;5076950;28;20043;-64
2023/07/19 07:16:22;;;;;;;10.33;4.83;;;;;;;21.64;74.26;99846.63;5106944;28;20278;-66
2023/07/19 07:18:52;;;;;;;12.40;5.03;;;;;;;21.63;74.49;99844.94;5088176;28;20047;-62
2023/07/19 07:21:23;;;;;;;10.40;4.40;;;;;;;21.79;74.65;99845.59;5093114;28;20298;-64
2023/07/19 07:23:54;;;;;;;8.37;5.00;;;;;;;21.97;74.08;99844.28;5083150;28;20766;-64
2023/07/19 07:26:27;;;;;;;8.30;4.37;;;;;;;22.05;74.59;99838.41;5083585;28;20301;-64
2023/07/19 07:28:57;;;;;;;10.87;4.50;;;;;;;22.22;74.38;99837.25;5097742;28;20270;-65
2023/07/19 07:31:28;;;;;;;15.70;4.60;;;;;;;22.17;73.36;99834.88;5069548;28;20316;-62
2023/07/19 07:33:58;;;;;;;9.07;4.10;;;;;;;22.15;73.33;99843.94;5062076;28;20282;-64
2023/07/19 07:36:29;;;;;;;9.73;4.67;;;;;;;22.10;73.81;99832.78;5070378;28;20067;-64
2023/07/19 07:39:00;;;;;;;10.03;4.13;;;;;;;22.06;73.76;99836.59;5060168;28;23042;-64
2023/07/19 07:41:32;;;;;;;8.47;3.80;;;;;;;21.86;74.01;99845.97;5072552;28;20135;-63
2023/07/19 07:44:03;;;;;;;7.07;3.70;;;;;;;21.75;74.05;99854.72;5060896;28;20056;-64
2023/07/19 07:46:33;;;;;;;8.43;4.57;;;;;;;21.56;74.97;99859.59;5071448;28;20278;-60
2023/07/19 07:49:04;;;;;;;12.20;4.73;;;;;;;21.55;75.60;99842.81;5061197;28;20278;-63
2023/07/19 07:51:36;;;;;;;9.83;4.57;;;;;;;21.45;75.33;99853.22;5070327;28;20661;-61
2023/07/19 07:54:06;;;;;;;15.27;4.33;;;;;;;21.38;75.58;99856.34;5060217;28;20312;-63
2023/07/19 07:56:38;;;;;;;12.03;4.33;;;;;;;21.26;76.01;99858.03;5070935;28;20071;-61
2023/07/19 07:59:09;;;;;;;12.07;4.60;;;;;;;21.10;75.56;99852.91;5059837;28;20055;-63
2023/07/19 08:01:41;;;;;;;8.30;4.10;;;;;;;21.17;76.58;99848.00;5071119;28;20338;-60
2023/07/19 08:04:12;;;;;;;5.93;3.63;;;;;;;21.18;75.58;99855.03;5060740;28;20323;-63
2023/07/19 08:06:42;;;;;;;11.57;4.17;;;;;;;21.09;75.98;99854.72;5060255;28;20658;-64
2023/07/19 08:09:13;;;;;;;7.97;4.20;;;;;;;20.90;75.83;99862.19;5071426;28;20347;-64
2023/07/19 08:11:45;;;;;;;11.03;4.30;;;;;;;20.74;77.23;99858.81;5060221;28;20379;-60
2023/07/19 08:14:15;;;;;;;9.73;4.53;;;;;;;20.64;77.24;99867.41;5070039;28;20389;-59
2023/07/19 08:16:46;;;;;;;9.67;4.10;;;;;;;20.44;77.75;99870.41;5059987;28;20277;-62
2023/07/19 08:19:16;;;;;;;11.63;4.10;;;;;;;20.33;78.81;99862.31;5070049;28;20278;-62
2023/07/19 08:21:47;;;;;;;12.67;3.83;;;;;;;20.29;79.35;99866.09;5061303;28;20740;-64
2023/07/19 08:24:17;;;;;;;9.13;4.23;;;;;;;20.18;80.05;99870.28;5071272;28;20339;-60
2023/07/19 08:26:49;;;;;;;20.30;4.90;;;;;;;20.17;80.34;99873.88;5058933;28;20315;-62
2023/07/19 08:29:20;;;;;;;27.90;5.33;;;;;;;20.15;80.17;99870.47;5069047;28;20347;-63
2023/07/19 08:31:51;;;;;;;15.20;4.03;;;;;;;20.05;79.69;99866.69;5060188;28;20282;-65
2023/07/19 08:34:22;;;;;;;12.80;4.87;;;;;;;19.97;80.91;99866.31;5071891;28;20286;-61
2023/07/19 08:36:52;;;;;;;17.17;4.80;;;;;;;20.05;80.89;99874.63;5059652;28;20801;-59
2023/07/19 08:39:23;;;;;;;7.33;3.83;;;;;;;19.92;81.45;99865.72;5069194;28;20270;-63
2023/07/19 08:41:55;;;;;;;10.67;4.40;;;;;;;19.88;80.13;99877.47;5059181;28;20297;-62
2023/07/19 08:44:26;;;;;;;6.63;3.97;;;;;;;19.68;80.50;99882.19;5070332;28;20286;-63
2023/07/19 08:46:57;;;;;;;16.10;4.40;;;;;;;19.59;81.54;99883.56;5059574;28;20353;-60
2023/07/19 08:49:28;;;;;;;24.17;4.93;;;;;;;19.55;81.37;99887.34;5070359;28;20349;-63
2023/07/19 08:51:59;;;;;;;33.40;5.43;;;;;;;19.36;82.25;99889.34;5060961;28;20277;-63
2023/07/19 08:54:30;;;;;;;13.47;4.80;;;;;;;19.26;82.16;99894.34;5069344;28;20281;-61
2023/07/19 08:57:05;;;;;;;13.50;4.80;;;;;;;19.18;83.22;99899.25;5059463;28;20284;-63
2023/07/19 08:59:36;;;;;;;10.87;3.90;;;;;;;19.11;83.14;99892.59;5069164;28;20373;-60
2023/07/19 09:02:07;;;;;;;7.73;4.13;;;;;;;19.03;83.38;99894.81;5059844;28;20270;-61
2023/07/19 09:04:40;;;;;;;17.67;5.20;;;;;;;18.87;83.82;99887.75;5069152;28;20365;-65
2023/07/19 09:07:13;;;;;;;14.10;4.87;;;;;;;18.78;84.35;99898.84;5061856;28;20296;-62
2023/07/19 09:09:54;;;;;;;7.80;4.37;;;;;;;18.72;85.54;99901.81;5063673;28;20297;-62
2023/07/19 09:12:40;;;;;;;14.80;4.90;;;;;;;18.64;86.78;99899.59;5075426;28;20394;-59
2023/07/19 09:15:19;;;;;;;9.57;4.63;;;;;;;18.66;87.38;99889.78;5064585;28;20293;-63
2023/07/19 09:17:54;;;;;;;11.50;4.50;;;;;;;18.70;86.14;99903.72;5061402;28;20282;-63
2023/07/19 09:20:29;;;;;;;13.83;4.70;;;;;;;18.40;86.59;99888.59;5073669;28;20289;-64
2023/07/19 09:23:03;;;;;;;12.37;4.97;;;;;;;18.35;87.38;99897.72;5061829;28;20652;-60
2023/07/19 09:25:34;;;;;;;15.53;4.77;;;;;;;18.21;87.77;99893.16;5074436;28;20746;-61
2023/07/19 09:28:12;;;;;;;10.40;4.87;;;;;;;18.04;88.52;99902.81;5063895;28;20302;-61
2023/07/19 09:31:08;;;;;;;5.93;4.38;;;;;;;17.55;89.28;99818.19;5062606;28;20293;-61
2023/07/19 09:33:57;;;;;;;10.07;4.73;;;;;;;17.86;89.45;99869.44;5064264;28;20407;-62
2023/07/19 09:36:36;;;;;;;12.97;4.70;;;;;;;18.08;89.76;99901.75;5073681;28;20754;-59
2023/07/19 09:39:15;;;;;;;8.07;5.10;;;;;;;17.96;89.60;99897.09;5062740;28;20282;-61
2023/07/19 09:42:15;;;;;;;10.03;4.70;;;;;;;17.85;90.19;99910.03;5045879;28;20294;-60
2023/07/19 09:44:59;;;;;;;10.53;4.50;;;;;;;17.75;91.67;99925.47;5062503;28;20605;-61
2023/07/19 09:47:37;;;;;;;12.07;4.90;;;;;;;17.57;90.99;99908.78;5072067;28;20278;-63
2023/07/19 09:50:12;;;;;;;9.17;5.03;;;;;;;17.45;92.24;99917.34;5063143;28;20286;-62
2023/07/19 09:52:47;;;;;;;9.63;5.30;;;;;;;17.33;92.77;99915.31;5063649;28;20282;-62
2023/07/19 09:55:21;;;;;;;8.67;4.63;;;;;;;17.16;93.01;99922.25;5073607;28;20286;-62
2023/07/19 09:57:52;;;;;;;10.57;5.17;;;;;;;16.98;94.14;99924.00;5061870;28;20296;-61
2023/07/19 10:00:39;;;;;;;19.30;5.00;;;;;;;16.78;95.38;99927.59;5072614;28;20677;-60
2023/07/19 10:03:11;;;;;;;11.40;4.67;;;;;;;16.70;96.31;99924.44;5046591;28;20881;-63
2023/07/19 10:05:45;;;;;;;13.70;5.23;;;;;;;16.53;97.08;99911.19;5064396;28;20293;-64
2023/07/19 10:08:17;;;;;;;10.47;4.80;;;;;;;16.59;97.35;99921.44;5073849;28;20294;-62
2023/07/19 10:10:48;;;;;;;7.77;4.63;;;;;;;16.50;97.97;99924.50;5063401;28;20309;-64
2023/07/19 10:13:18;;;;;;;6.40;4.63;;;;;;;16.42;98.30;99930.13;5073637;28;20382;-64
2023/07/19 10:15:54;;;;;;;12.27;5.30;;;;;;;16.29;99.26;99940.38;5062434;28;20751;-64
2023/07/19 10:18:27;;;;;;;12.23;5.63;;;;;;;16.18;100.00;99937.38;5073524;28;21234;-62
2023/07/19 10:21:07;;;;;;;11.87;5.27;;;;;;;16.18;100.00;99940.03;5063388;28;20448;-62
2023/07/19 10:23:37;;;;;;;10.67;4.97;;;;;;;16.02;100.00;99928.44;5072799;28;20297;-59
2023/07/19 10:26:11;;;;;;;10.90;4.93;;;;;;;16.03;100.00;99943.34;5062207;28;20317;-63
2023/07/19 10:28:42;;;;;;;12.53;5.13;;;;;;;15.99;100.00;99957.56;5062171;28;20376;-62
2023/07/19 10:31:15;;;;;;;14.07;5.27;;;;;;;15.96;100.00;99963.81;5071899;28;21039;-61
2023/07/19 10:33:57;;;;;;;9.27;5.57;;;;;;;15.91;100.00;99969.28;5062887;28;20297;-65
2023/07/19 10:36:30;;;;;;;9.27;5.03;;;;;;;15.83;100.00;99966.13;5072431;28;20277;-65
2023/07/19 10:39:01;;;;;;;11.90;5.70;;;;;;;15.73;100.00;99956.91;5061634;28;22204;-63
2023/07/19 10:41:34;;;;;;;9.97;5.10;;;;;;;15.74;100.00;99970.00;5072100;28;20277;-64
2023/07/19 10:44:05;;;;;;;10.53;5.50;;;;;;;15.72;100.00;99973.63;5061812;28;20305;-60
2023/07/19 10:46:38;;;;;;;13.67;6.17;;;;;;;15.72;100.00;99981.53;5073348;28;20285;-64
2023/07/19 10:49:11;;;;;;;9.93;5.30;;;;;;;15.67;100.00;99988.72;5060040;28;20624;-64
2023/07/19 10:51:53;;;;;;;9.37;5.30;;;;;;;15.67;100.00;99988.72;5075392;28;20304;-64
2023/07/19 10:54:28;;;;;;;8.83;4.90;;;;;;;15.67;100.00;99988.72;5073769;28;20948;-65
2023/07/19 10:57:27;;;;;;;8.63;5.23;;;;;;;15.59;100.00;99986.41;5060939;28;20270;-65
2023/07/19 10:59:58;;;;;;;11.27;6.10;;;;;;;15.58;100.00;99983.88;5060677;28;20342;-63
2023/07/19 11:02:31;;;;;;;13.87;5.40;;;;;;;15.62;100.00;99990.69;5072181;28;20318;-62
2023/07/19 11:05:13;;;;;;;9.33;5.17;;;;;;;15.61;100.00;99999.53;5060042;28;20287;-64
2023/07/19 11:07:44;;;;;;;14.87;5.90;;;;;;;15.57;100.00;100005.84;5060789;28;20292;-61
2023/07/19 11:10:16;;;;;;;12.83;5.83;;;;;;;15.54;100.00;99994.50;5071539;28;20334;-63
2023/07/19 11:12:50;;;;;;;9.30;6.10;;;;;;;15.52;100.00;99990.22;5061900;28;20297;-61
2023/07/19 11:15:21;;;;;;;11.33;5.93;;;;;;;15.48;100.00;99994.78;5071874;28;20289;-64
2023/07/19 11:17:58;;;;;;;11.67;5.30;;;;;;;15.37;100.00;99983.81;5061327;28;20317;-64
2023/07/19 11:20:35;;;;;;;;;;;;;;;15.42;100.00;99995.00;5071237;28;20836;-60
2023/07/19 11:23:08;;;;;;;10.27;5.47;;;;;;;15.33;100.00;99979.59;5060356;28;19939;-64
2023/07/19 11:25:42;;;;;;;16.07;5.33;;;;;;;15.35;100.00;99993.56;5066934;28;20617;-59
2023/07/19 11:28:13;;;;;;;26.67;6.20;;;;;;;15.32;100.00;99989.28;5071035;28;20290;-64
2023/07/19 11:30:48;;;;;;;22.27;5.90;;;;;;;15.35;100.00;100001.47;5060804;28;20320;-62
2023/07/19 11:33:21;;;;;;;15.47;5.53;;;;;;;15.39;100.00;99995.13;5071001;28;20278;-62
2023/07/19 11:35:54;;;;;;;13.97;4.93;;;;;;;15.37;100.00;99996.97;5060859;28;20381;-64
2023/07/19 11:38:26;;;;;;;14.53;4.97;;;;;;;15.31;100.00;99997.22;5071789;28;20282;-64
2023/07/19 11:40:58;;;;;;;17.27;6.17;;;;;;;15.22;100.00;99997.59;5059236;28;20288;-61
2023/07/19 11:43:30;;;;;;;10.03;5.23;;;;;;;15.17;100.00;100002.16;5072612;28;20301;-62
2023/07/19 11:46:01;;;;;;;9.37;5.27;;;;;;;15.07;100.00;99988.53;5061338;28;20292;-62
2023/07/19 11:48:35;;;;;;;8.63;5.53;;;;;;;15.05;100.00;100004.38;5071399;28;20274;-59